Terminal Aerodrome Forecast
Issued by NWS

Home | Current Version | Previous Version | Text Only | Print | Product List | Glossary On
Versions: 1 2 3 4 5 6 7 8 9 10 11 12 13
000
FTUS44 KCRP 032330
TAFLRD
TAF
KLRD 032330Z 0400/0424 13014KT P6SM BKN050
     FM040700 14013KT P6SM BKN012 OVC200
     FM041600 14017KT P6SM VCSH SCT035 BKN200=

USA.gov is the U.S. government's official web portal to all federal, state and local government web resources and services.